Time;durP1;ratioP1;P1;durP2;ratioP2;P2;SDS_P1;SDS_P2;PMS_P1;PMS_P2;Temp;Humidity;BMP_temperature;BMP_pressure;BME280_temperature;BME280_humidity;BME280_pressure;Samples;Min_cycle;Max_cycle;Signal;HPM_P1;HPM_P2
2022/10/01 00:00:53;;;;;;;20.00;17.10;;;;;;;10.58;84.55;100305.02;86108;1295;82035;-61
2022/10/01 00:03:15;;;;;;;21.70;16.50;;;;;;;10.59;84.70;100300.48;86102;1293;83157;-61
2022/10/01 00:05:24;;;;;;;21.40;16.30;;;;;;;10.59;84.66;100302.45;86117;1291;99354;-60
2022/10/01 00:07:39;;;;;;;20.90;16.60;;;;;;;10.58;84.68;100302.59;86133;1290;87921;-61
2022/10/01 00:09:48;;;;;;;20.40;18.20;;;;;;;10.52;84.72;100297.20;86133;1287;95372;-60
2022/10/01 00:11:58;;;;;;;22.50;19.60;;;;;;;10.47;84.79;100298.73;86115;1290;81699;-62
2022/10/01 00:14:10;;;;;;;20.60;18.40;;;;;;;10.42;84.88;100297.36;86106;1288;83140;-63
2022/10/01 00:16:21;;;;;;;23.50;19.30;;;;;;;10.40;84.87;100298.94;86147;1286;96805;-62
2022/10/01 00:18:30;;;;;;;19.90;17.20;;;;;;;10.38;84.88;100305.03;86127;1291;86659;-62
2022/10/01 00:20:42;;;;;;;22.10;18.00;;;;;;;10.36;84.88;100305.19;86115;1290;95987;-62
2022/10/01 00:22:51;;;;;;;21.50;18.10;;;;;;;10.34;84.89;100303.79;86098;1288;81160;-62
2022/10/01 00:25:00;;;;;;;21.70;18.00;;;;;;;10.32;85.02;100304.93;86132;1290;81372;-62
2022/10/01 00:27:11;;;;;;;24.20;18.30;;;;;;;10.32;85.11;100302.56;86116;1293;97648;-62
2022/10/01 00:29:19;;;;;;;23.60;18.70;;;;;;;10.33;85.19;100299.95;86100;1294;89054;-63
2022/10/01 00:31:29;;;;;;;22.40;19.10;;;;;;;10.34;85.20;100296.65;86109;1294;94404;-61
2022/10/01 00:33:39;;;;;;;22.20;18.40;;;;;;;10.34;85.14;100298.55;86111;1293;81047;-60
2022/10/01 00:35:48;;;;;;;23.60;19.50;;;;;;;10.37;85.18;100303.10;86123;1290;83503;-63
2022/10/01 00:37:56;;;;;;;21.40;18.60;;;;;;;10.38;85.16;100304.87;86097;1294;98825;-62
2022/10/01 00:40:09;;;;;;;21.90;19.20;;;;;;;10.38;85.21;100306.53;86108;1288;89494;-62
2022/10/01 00:42:25;;;;;;;24.30;19.20;;;;;;;10.36;85.24;100311.08;86122;1296;93364;-64
2022/10/01 00:44:37;;;;;;;21.60;18.20;;;;;;;10.39;85.25;100319.24;86115;1288;82116;-65
2022/10/01 00:46:47;;;;;;;22.70;18.40;;;;;;;10.41;85.25;100321.69;85870;1288;370179;-62
2022/10/01 00:49:01;;;;;;;25.10;18.80;;;;;;;10.42;85.33;100318.50;86106;1290;97732;-61
2022/10/01 00:51:12;;;;;;;22.40;17.60;;;;;;;10.40;85.37;100315.11;86136;1290;88938;-61
2022/10/01 00:53:24;;;;;;;23.30;18.40;;;;;;;10.41;85.49;100308.81;86107;1290;95076;-61
2022/10/01 00:55:37;;;;;;;20.20;17.60;;;;;;;10.40;85.50;100306.14;86105;1290;82149;-62
2022/10/01 00:57:50;;;;;;;24.70;18.50;;;;;;;10.41;85.47;100306.53;86134;1296;82328;-60
2022/10/01 01:00:05;;;;;;;22.80;19.70;;;;;;;10.40;85.52;100304.23;86085;1293;96796;-60
2022/10/01 01:02:14;;;;;;;25.10;18.90;;;;;;;10.38;85.58;100300.63;86168;1290;89007;-63
2022/10/01 01:04:22;;;;;;;22.40;19.50;;;;;;;10.36;85.49;100298.57;86095;1290;93362;-64
2022/10/01 01:06:33;;;;;;;22.40;19.00;;;;;;;10.35;85.53;100296.33;85979;1293;83862;-63
2022/10/01 01:08:43;;;;;;;23.00;19.00;;;;;;;10.32;85.72;100296.67;86096;1290;82795;-63
2022/10/01 01:11:04;;;;;;;23.80;18.40;;;;;;;10.34;85.65;100300.41;86164;1290;98661;-63
2022/10/01 01:13:23;;;;;;;20.80;18.20;;;;;;;10.31;85.81;100298.64;86095;1294;89668;-62
2022/10/01 01:15:41;;;;;;;23.20;18.50;;;;;;;10.26;85.84;100297.25;86092;1290;95611;-62
2022/10/01 01:18:08;;;;;;;21.00;18.70;;;;;;;10.24;85.99;100294.73;86132;1288;82052;-60
2022/10/01 01:20:49;;;;;;;21.70;18.00;;;;;;;10.26;86.00;100298.66;86092;1291;83560;-60
2022/10/01 01:23:12;;;;;;;23.80;19.30;;;;;;;10.25;86.08;100300.40;86107;1288;99357;-63
2022/10/01 01:25:32;;;;;;;25.30;19.80;;;;;;;10.25;86.02;100303.91;86146;1288;88919;-62
2022/10/01 01:27:48;;;;;;;22.80;18.80;;;;;;;10.28;86.04;100301.48;86134;1288;93263;-63
2022/10/01 01:30:03;;;;;;;22.10;18.20;;;;;;;10.31;85.88;100306.88;86115;1291;80919;-63
2022/10/01 01:32:19;;;;;;;22.00;18.40;;;;;;;10.28;86.07;100306.77;86113;1290;82215;-62
2022/10/01 01:34:32;;;;;;;20.50;18.40;;;;;;;10.23;86.13;100305.27;86125;1287;97590;-62
2022/10/01 01:36:46;;;;;;;24.00;19.90;;;;;;;10.22;86.20;100301.57;86113;1289;88786;-64
2022/10/01 01:38:58;;;;;;;23.70;19.20;;;;;;;10.23;86.21;100295.96;86110;1292;94270;-64
2022/10/01 01:41:09;;;;;;;23.60;19.50;;;;;;;10.23;86.21;100296.34;86110;1296;81758;-64
2022/10/01 01:43:23;;;;;;;24.30;19.00;;;;;;;10.28;86.29;100306.38;86149;1296;83096;-64
2022/10/01 01:45:30;;;;;;;;;;;;;;;10.31;86.16;100310.64;86012;1277;97935;-64
2022/10/01 01:47:44;;;;;;;24.00;19.50;;;;;;;10.33;86.14;100313.16;86123;1296;88306;-59
2022/10/01 01:49:55;;;;;;;24.50;19.80;;;;;;;10.32;86.28;100313.27;86122;1290;95371;-60
2022/10/01 01:52:12;;;;;;;25.30;20.40;;;;;;;10.29;86.30;100306.52;86125;1290;82062;-62
2022/10/01 01:54:21;;;;;;;25.90;20.00;;;;;;;10.27;86.30;100306.82;86105;1294;83575;-62
2022/10/01 01:56:33;;;;;;;24.20;19.70;;;;;;;10.26;86.27;100304.23;86083;1296;98802;-62
2022/10/01 01:58:41;;;;;;;23.30;19.70;;;;;;;10.28;86.26;100300.44;86159;1290;89572;-62
2022/10/01 02:00:53;;;;;;;23.60;19.60;;;;;;;10.29;86.33;100305.17;86181;1296;94381;-61
2022/10/01 02:03:02;;;;;;;24.50;19.60;;;;;;;10.33;86.26;100309.38;86103;1281;82433;-61
2022/10/01 02:05:15;;;;;;;25.30;19.40;;;;;;;10.34;86.22;100311.18;86133;1296;82709;-61
2022/10/01 02:07:42;;;;;;;25.00;20.60;;;;;;;10.35;86.28;100317.34;86128;1289;97882;-62
2022/10/01 02:10:02;;;;;;;25.10;21.10;;;;;;;10.34;86.26;100323.77;86132;1290;88802;-62
2022/10/01 02:12:23;;;;;;;25.30;21.40;;;;;;;10.31;86.23;100325.20;86081;1291;94159;-63
2022/10/01 02:14:46;;;;;;;25.60;20.90;;;;;;;10.30;86.23;100327.20;86080;1290;81533;-63
2022/10/01 02:17:02;;;;;;;23.60;20.70;;;;;;;10.30;86.29;100332.19;86135;1290;82359;-63
2022/10/01 02:19:23;;;;;;;24.20;20.30;;;;;;;10.27;86.24;100333.20;86104;1296;97861;-64
2022/10/01 02:21:38;;;;;;;27.60;20.50;;;;;;;10.25;86.18;100334.95;86103;1295;88905;-61
2022/10/01 02:23:56;;;;;;;26.70;21.80;;;;;;;10.26;86.18;100334.55;86134;1290;93601;-61
2022/10/01 02:26:11;;;;;;;29.60;21.70;;;;;;;10.23;86.29;100330.98;86116;1290;81219;-61
2022/10/01 02:28:24;;;;;;;24.20;20.70;;;;;;;10.19;86.34;100330.96;86113;1290;82287;-60
2022/10/01 02:30:36;;;;;;;25.20;20.40;;;;;;;10.15;86.37;100329.26;86132;1288;97340;-60
2022/10/01 02:32:49;;;;;;;26.00;21.50;;;;;;;10.15;86.52;100325.67;86130;1289;86233;-60
2022/10/01 02:35:01;;;;;;;21.70;19.40;;;;;;;10.15;86.51;100325.67;86046;1296;94658;-61
2022/10/01 02:37:12;;;;;;;24.20;20.90;;;;;;;10.15;86.42;100323.48;86110;1282;80787;-64
2022/10/01 02:39:24;;;;;;;27.10;20.90;;;;;;;10.14;86.37;100324.98;85971;1298;80579;-64
2022/10/01 02:41:38;;;;;;;25.70;21.50;;;;;;;10.11;86.45;100317.93;85977;1289;98894;-64
2022/10/01 02:43:58;;;;;;;24.60;20.20;;;;;;;10.08;86.39;100313.58;86000;1291;88814;-64
2022/10/01 02:46:20;;;;;;;24.90;22.20;;;;;;;10.07;86.50;100301.76;85996;1296;93921;-64
2022/10/01 02:48:33;;;;;;;23.80;20.00;;;;;;;10.05;86.55;100297.64;85977;1297;80954;-64
2022/10/01 02:50:51;;;;;;;27.10;23.20;;;;;;;10.05;86.40;100293.27;86031;1297;83684;-64
2022/10/01 02:53:07;;;;;;;26.00;21.70;;;;;;;10.04;86.48;100291.51;86001;1293;98547;-64
2022/10/01 02:55:24;;;;;;;26.40;21.40;;;;;;;10.03;86.56;100285.23;85993;1297;89249;-63
2022/10/01 02:57:34;;;;;;;25.60;21.50;;;;;;;10.03;86.54;100280.42;86003;1290;95588;-64
2022/10/01 02:59:43;;;;;;;30.10;23.40;;;;;;;9.99;86.56;100274.59;86012;1290;82028;-63
2022/10/01 03:01:52;;;;;;;26.50;21.50;;;;;;;9.99;86.58;100273.19;86011;1297;81646;-63
2022/10/01 03:04:01;;;;;;;25.50;22.10;;;;;;;9.97;86.65;100275.08;86018;1293;98238;-64
2022/10/01 03:06:10;;;;;;;27.20;22.00;;;;;;;9.93;86.64;100268.74;86022;1291;89477;-62
2022/10/01 03:08:19;;;;;;;27.40;21.10;;;;;;;9.92;86.70;100267.48;85975;1293;95719;-63
2022/10/01 03:10:28;;;;;;;27.60;22.10;;;;;;;9.94;86.70;100266.73;86011;1293;81357;-62
2022/10/01 03:12:43;;;;;;;24.30;20.30;;;;;;;9.94;86.68;100266.42;86027;1293;83076;-62
2022/10/01 03:14:54;;;;;;;26.80;20.60;;;;;;;9.93;86.66;100262.61;86035;1293;96608;-62
2022/10/01 03:17:05;;;;;;;26.00;20.70;;;;;;;9.90;86.54;100253.77;86005;1293;88278;-60
2022/10/01 03:19:16;;;;;;;25.80;21.60;;;;;;;9.85;86.50;100247.60;85998;1296;96070;-59
2022/10/01 03:21:25;;;;;;;26.50;21.60;;;;;;;9.85;86.57;100246.89;85991;1293;81801;-60
2022/10/01 03:23:34;;;;;;;24.90;20.80;;;;;;;9.86;86.53;100248.98;85993;1293;82675;-60
2022/10/01 03:25:43;;;;;;;26.60;22.20;;;;;;;9.85;86.59;100245.04;86023;1297;96422;-60
2022/10/01 03:27:52;;;;;;;25.60;21.60;;;;;;;9.83;86.58;100247.08;85996;1298;88524;-62
2022/10/01 03:30:00;;;;;;;26.00;22.30;;;;;;;9.83;86.51;100252.77;86007;1293;95741;-62
2022/10/01 03:32:09;;;;;;;27.10;21.90;;;;;;;9.82;86.39;100258.40;86011;1290;81984;-64
2022/10/01 03:34:20;;;;;;;26.30;22.10;;;;;;;9.79;86.51;100255.61;86056;1297;82878;-64
2022/10/01 03:36:29;;;;;;;26.90;21.60;;;;;;;9.75;86.60;100256.42;86060;1294;99204;-62
2022/10/01 03:38:38;;;;;;;25.30;20.80;;;;;;;9.71;86.51;100261.06;86064;1294;88856;-62
2022/10/01 03:40:47;;;;;;;27.30;21.40;;;;;;;9.65;86.56;100266.59;86071;1290;94212;-63
2022/10/01 03:42:57;;;;;;;26.60;21.90;;;;;;;9.62;86.72;100273.65;86064;1284;81622;-60
2022/10/01 03:45:11;;;;;;;27.40;21.50;;;;;;;9.59;86.60;100278.73;86067;1278;81729;-60
2022/10/01 03:47:21;;;;;;;24.00;20.60;;;;;;;9.52;86.52;100281.25;86074;1297;97771;-60
2022/10/01 03:49:30;;;;;;;27.70;20.90;;;;;;;9.46;86.48;100281.05;86059;1296;87132;-60
2022/10/01 03:51:40;;;;;;;24.10;20.60;;;;;;;9.41;86.37;100286.61;86042;1298;95618;-64
2022/10/01 03:53:49;;;;;;;24.80;21.20;;;;;;;9.35;86.55;100279.80;86045;1298;81032;-63
2022/10/01 03:56:03;;;;;;;25.30;21.00;;;;;;;9.30;86.56;100278.72;86088;1290;80698;-63
2022/10/01 03:58:12;;;;;;;25.00;21.40;;;;;;;9.25;86.33;100281.12;86077;1295;98741;-62
2022/10/01 04:00:21;;;;;;;26.50;21.00;;;;;;;9.15;86.14;100287.86;85958;1286;90135;-63
2022/10/01 04:02:30;;;;;;;27.80;21.80;;;;;;;9.08;86.02;100288.11;86076;1296;94505;-63
2022/10/01 04:04:39;;;;;;;23.50;18.60;;;;;;;9.02;85.91;100290.91;86064;1294;80826;-61
2022/10/01 04:06:48;;;;;;;25.70;21.20;;;;;;;8.95;85.81;100290.25;86040;1291;81259;-62
2022/10/01 04:08:58;;;;;;;26.10;21.10;;;;;;;8.86;85.82;100287.67;86086;1298;98129;-62
2022/10/01 04:11:10;;;;;;;27.30;22.00;;;;;;;8.75;85.69;100290.83;86061;1290;87314;-62
2022/10/01 04:13:20;;;;;;;24.30;21.20;;;;;;;8.59;85.71;100285.73;86084;1282;94424;-62
2022/10/01 04:15:29;;;;;;;26.50;20.90;;;;;;;8.46;85.58;100286.60;86089;1296;78856;-62
2022/10/01 04:17:39;;;;;;;27.40;20.40;;;;;;;8.34;85.67;100282.61;86081;1295;81129;-62
2022/10/01 04:19:51;;;;;;;25.00;20.30;;;;;;;8.23;85.58;100279.85;86053;1290;98653;-62
2022/10/01 04:22:00;;;;;;;27.30;21.50;;;;;;;8.13;85.52;100282.11;86089;1297;86906;-62
2022/10/01 04:24:10;;;;;;;26.40;20.10;;;;;;;8.04;85.72;100280.51;86051;1294;93587;-62
2022/10/01 04:26:20;;;;;;;23.50;20.40;;;;;;;7.97;85.76;100278.84;86064;1296;82419;-60
2022/10/01 04:28:29;;;;;;;25.00;21.00;;;;;;;7.87;85.83;100277.10;86083;1297;82650;-60
2022/10/01 04:30:45;;;;;;;23.60;18.20;;;;;;;7.84;85.81;100280.05;86093;1297;96194;-60
2022/10/01 04:32:54;;;;;;;22.80;19.70;;;;;;;7.77;85.72;100279.84;86060;1296;89321;-63
2022/10/01 04:35:06;;;;;;;23.90;18.90;;;;;;;7.71;85.67;100281.08;86073;1296;95925;-63
2022/10/01 04:37:14;;;;;;;24.40;19.80;;;;;;;7.63;85.75;100279.70;86055;1298;81865;-62
2022/10/01 04:39:23;;;;;;;23.70;18.60;;;;;;;7.53;85.83;100275.41;86053;1297;82053;-62
2022/10/01 04:41:35;;;;;;;25.90;18.50;;;;;;;7.49;85.83;100272.67;86088;1294;98730;-60
2022/10/01 04:43:44;;;;;;;25.70;19.10;;;;;;;7.47;85.89;100275.23;86068;1298;88567;-60
2022/10/01 04:45:53;;;;;;;24.00;19.80;;;;;;;7.43;85.99;100273.53;86066;1298;93598;-62
2022/10/01 04:48:05;;;;;;;23.20;19.30;;;;;;;7.42;85.81;100267.72;86026;1290;81304;-63
2022/10/01 04:50:15;;;;;;;22.20;18.10;;;;;;;7.37;86.00;100271.20;86097;1290;82523;-63
2022/10/01 04:52:24;;;;;;;27.40;19.90;;;;;;;7.33;86.06;100271.25;86127;1291;98749;-62
2022/10/01 04:54:33;;;;;;;24.30;18.90;;;;;;;7.33;86.08;100274.20;86060;1291;88749;-62
2022/10/01 04:56:42;;;;;;;26.20;19.90;;;;;;;7.33;85.93;100275.54;85947;1291;97216;-63
2022/10/01 04:58:51;;;;;;;26.20;20.50;;;;;;;7.31;85.99;100274.58;86041;1294;82161;-62
2022/10/01 05:01:00;;;;;;;22.80;19.50;;;;;;;7.27;85.91;100276.41;86074;1290;83307;-63
2022/10/01 05:03:14;;;;;;;21.90;18.50;;;;;;;7.23;86.00;100274.95;86092;1297;97880;-63
2022/10/01 05:05:27;;;;;;;24.10;18.80;;;;;;;7.19;85.93;100273.63;86055;1296;87106;-63
2022/10/01 05:11:45;;;;;;;23.10;18.20;;;;;;;7.12;86.20;100273.21;86239;1281;81794;-62
2022/10/01 05:13:56;;;;;;;24.30;18.70;;;;;;;7.13;86.20;100276.35;86084;1288;82456;-63
2022/10/01 05:16:06;;;;;;;25.60;19.50;;;;;;;7.14;86.42;100274.64;86056;1296;98833;-61
2022/10/01 05:18:16;;;;;;;25.90;19.80;;;;;;;7.20;86.59;100275.47;86087;1296;89528;-59
2022/10/01 05:20:27;;;;;;;24.70;20.00;;;;;;;7.29;86.44;100274.90;86108;1290;95875;-60
2022/10/01 05:22:36;;;;;;;23.50;19.50;;;;;;;7.38;86.35;100276.10;86095;1296;81247;-62
2022/10/01 05:24:46;;;;;;;24.10;19.70;;;;;;;7.45;86.41;100276.18;86092;1290;80666;-62
2022/10/01 05:26:55;;;;;;;25.00;19.60;;;;;;;7.51;86.47;100275.45;86076;1297;99358;-61
2022/10/01 05:29:03;;;;;;;24.20;19.70;;;;;;;7.61;86.53;100278.58;86073;1296;88130;-60
2022/10/01 05:31:13;;;;;;;26.30;19.40;;;;;;;7.96;86.88;100282.72;86097;1292;95314;-62
2022/10/01 05:33:22;;;;;;;23.40;20.50;;;;;;;8.46;87.05;100279.55;86094;1291;83729;-61
2022/10/01 05:35:31;;;;;;;22.30;18.90;;;;;;;9.04;86.70;100279.42;86080;1284;83517;-61
2022/10/01 05:37:40;;;;;;;22.60;19.20;;;;;;;9.59;86.27;100275.84;86113;1296;96625;-62
2022/10/01 05:39:51;;;;;;;21.50;19.00;;;;;;;10.12;85.66;100275.20;86104;1291;88714;-61
2022/10/01 05:42:01;;;;;;;23.60;19.70;;;;;;;10.86;85.16;100276.44;86093;1294;93391;-63
2022/10/01 05:44:10;;;;;;;24.20;21.20;;;;;;;11.60;84.76;100274.63;86093;1290;79289;-63
2022/10/01 05:46:20;;;;;;;22.70;20.20;;;;;;;12.44;83.44;100276.88;86120;1290;83205;-61
2022/10/01 05:48:35;;;;;;;23.70;21.00;;;;;;;12.92;82.36;100275.75;86106;1297;98974;-60
2022/10/01 05:50:44;;;;;;;24.20;20.90;;;;;;;12.68;82.10;100271.34;86115;1296;88107;-59
2022/10/01 05:52:54;;;;;;;23.90;20.90;;;;;;;12.23;81.73;100272.80;86147;1291;95928;-63
2022/10/01 05:55:02;;;;;;;24.90;21.10;;;;;;;11.89;82.27;100275.00;86098;1298;78274;-63
2022/10/01 05:57:11;;;;;;;23.10;20.50;;;;;;;11.83;82.42;100276.13;86089;1290;83331;-63
2022/10/01 05:59:21;;;;;;;26.20;23.10;;;;;;;11.67;82.53;100270.99;86089;1296;98111;-63
2022/10/01 06:01:31;;;;;;;25.30;22.40;;;;;;;11.47;82.96;100275.27;86106;1298;88186;-60
2022/10/01 06:03:39;;;;;;;23.90;20.10;;;;;;;11.27;83.44;100277.48;86115;1297;97047;-60
2022/10/01 06:05:47;;;;;;;23.60;19.40;;;;;;;11.16;83.28;100278.23;86086;1290;82013;-60
2022/10/01 06:07:56;;;;;;;23.90;19.70;;;;;;;11.02;83.32;100275.50;86123;1297;82276;-62
2022/10/01 06:10:06;;;;;;;21.90;19.50;;;;;;;10.90;83.48;100276.18;86071;1296;99010;-61
2022/10/01 06:12:18;;;;;;;20.10;17.90;;;;;;;10.87;83.59;100271.62;86111;1296;87310;-63
2022/10/01 06:14:28;;;;;;;25.60;19.70;;;;;;;10.85;83.61;100272.29;86081;1297;93739;-63
2022/10/01 06:16:37;;;;;;;23.70;19.40;;;;;;;10.87;83.50;100268.30;86097;1296;80418;-60
2022/10/01 06:18:47;;;;;;;22.20;19.10;;;;;;;10.87;83.48;100263.77;86117;1295;82346;-60
2022/10/01 06:20:57;;;;;;;22.10;19.20;;;;;;;10.90;83.49;100267.67;86115;1286;99736;-60
2022/10/01 06:23:11;;;;;;;22.80;20.20;;;;;;;10.94;83.44;100263.95;86109;1291;88904;-60
2022/10/01 06:25:20;;;;;;;24.90;20.20;;;;;;;10.90;83.52;100259.33;86075;1290;95828;-59
2022/10/01 06:27:29;;;;;;;24.00;21.10;;;;;;;10.94;83.53;100259.95;86086;1291;80930;-61
2022/10/01 06:29:38;;;;;;;26.10;20.00;;;;;;;10.98;83.55;100260.75;86087;1297;82587;-61
2022/10/01 06:31:48;;;;;;;22.90;19.90;;;;;;;11.04;83.61;100261.72;86112;1296;97333;-61
2022/10/01 06:33:56;;;;;;;21.80;19.50;;;;;;;11.11;83.58;100257.90;86069;1295;87278;-61
2022/10/01 06:36:10;;;;;;;22.40;19.70;;;;;;;11.18;83.62;100257.12;86087;1296;94331;-61
2022/10/01 06:38:18;;;;;;;;;;;;;;;11.27;83.78;100252.08;86117;1291;83281;-61
2022/10/01 06:40:28;;;;;;;25.30;21.60;;;;;;;11.35;83.94;100252.46;86096;1295;83805;-61
2022/10/01 06:42:36;;;;;;;21.50;19.20;;;;;;;11.45;83.89;100252.02;86083;1296;98710;-61
2022/10/01 06:44:47;;;;;;;25.90;20.50;;;;;;;11.53;83.95;100253.37;86063;1287;88183;-61
2022/10/01 06:46:56;;;;;;;24.30;21.00;;;;;;;11.65;84.14;100251.10;86061;1297;95351;-59
2022/10/01 06:49:04;;;;;;;24.60;19.70;;;;;;;11.77;84.07;100252.04;86075;1289;83021;-60
2022/10/01 06:51:13;;;;;;;26.10;21.90;;;;;;;11.90;84.23;100252.34;86065;1296;82291;-61
2022/10/01 06:53:22;;;;;;;25.70;21.00;;;;;;;12.02;84.36;100253.89;86050;1290;98145;-61
2022/10/01 06:55:33;;;;;;;25.40;21.50;;;;;;;12.08;84.35;100250.85;86099;1296;88818;-62
2022/10/01 06:57:43;;;;;;;26.60;22.40;;;;;;;12.23;84.25;100252.23;86066;1296;94859;-62
2022/10/01 06:59:52;;;;;;;27.00;22.80;;;;;;;12.31;84.36;100247.34;86058;1296;81160;-62
2022/10/01 07:02:01;;;;;;;25.20;22.50;;;;;;;12.45;84.30;100247.66;86061;1298;81275;-59
2022/10/01 07:04:11;;;;;;;24.70;21.70;;;;;;;12.57;84.18;100247.14;86122;1296;100223;-60
2022/10/01 07:06:20;;;;;;;25.90;22.20;;;;;;;12.66;84.23;100243.07;86083;1290;87770;-61
2022/10/01 07:08:32;;;;;;;27.70;21.90;;;;;;;12.71;84.03;100244.79;86089;1295;93395;-61
2022/10/01 07:10:42;;;;;;;27.80;21.90;;;;;;;12.77;83.91;100245.17;86075;1289;80355;-60
2022/10/01 07:12:52;;;;;;;24.50;21.70;;;;;;;12.87;83.80;100243.64;86085;1294;79682;-59
2022/10/01 07:15:01;;;;;;;23.50;20.60;;;;;;;12.95;83.60;100242.96;86099;1296;100302;-59
2022/10/01 07:17:10;;;;;;;22.20;19.90;;;;;;;13.02;83.55;100239.46;86084;1297;87460;-62
2022/10/01 07:19:19;;;;;;;22.30;19.50;;;;;;;13.13;83.38;100235.27;86078;1296;95450;-63
2022/10/01 07:21:28;;;;;;;24.60;21.90;;;;;;;13.24;82.93;100234.30;86101;1294;80866;-61
2022/10/01 07:23:36;;;;;;;24.70;20.30;;;;;;;13.32;82.74;100232.30;86103;1297;82572;-59
2022/10/01 07:25:46;;;;;;;25.20;21.70;;;;;;;13.46;82.87;100229.55;86118;1297;99417;-58
2022/10/01 07:27:58;;;;;;;24.10;20.70;;;;;;;13.88;82.88;100231.25;86107;1297;86420;-60
2022/10/01 07:30:10;;;;;;;24.50;21.90;;;;;;;14.71;82.53;100233.34;86076;1294;95363;-61
2022/10/01 07:32:19;;;;;;;23.60;20.70;;;;;;;15.60;81.62;100228.83;86119;1294;80454;-60
2022/10/01 07:34:30;;;;;;;21.10;18.90;;;;;;;16.05;80.46;100234.52;86116;1290;81831;-60
2022/10/01 07:36:38;;;;;;;19.30;17.20;;;;;;;16.57;79.54;100237.55;86124;1296;99313;-63
2022/10/01 07:38:50;;;;;;;17.80;15.90;;;;;;;17.32;78.53;100233.99;86060;1291;88330;-63
2022/10/01 07:41:01;;;;;;;18.40;16.50;;;;;;;17.60;77.95;100231.33;86068;1296;93130;-63
2022/10/01 07:43:13;;;;;;;15.50;13.90;;;;;;;18.03;77.42;100237.27;86079;1293;81034;-63
2022/10/01 07:45:23;;;;;;;15.40;13.90;;;;;;;19.21;76.63;100236.33;86121;1297;82583;-63
2022/10/01 07:47:32;;;;;;;13.60;12.30;;;;;;;20.33;74.78;100239.26;86102;1296;99051;-60
2022/10/01 07:49:43;;;;;;;13.50;12.20;;;;;;;21.28;72.81;100232.07;86115;1287;88309;-59
2022/10/01 07:51:53;;;;;;;12.70;11.50;;;;;;;22.04;70.76;100227.78;86077;1296;93453;-63
2022/10/01 07:54:01;;;;;;;13.10;11.70;;;;;;;22.69;69.34;100230.04;86094;1296;79769;-63
2022/10/01 07:56:13;;;;;;;11.20;10.20;;;;;;;23.42;67.30;100234.83;86119;1297;82813;-63
2022/10/01 07:58:22;;;;;;;11.50;10.50;;;;;;;23.95;66.20;100237.48;86071;1298;99410;-62
2022/10/01 08:00:35;;;;;;;11.20;10.10;;;;;;;24.26;65.63;100236.13;86063;1294;89519;-62
2022/10/01 08:02:49;;;;;;;11.80;10.70;;;;;;;24.51;64.67;100242.06;86091;1295;93316;-63
2022/10/01 08:07:25;;;;;;;12.90;11.70;;;;;;;25.00;60.69;100246.98;86097;1296;81692;-63
2022/10/01 08:09:34;;;;;;;11.30;10.30;;;;;;;25.32;59.07;100244.71;86094;1296;99139;-63
2022/10/01 08:11:44;;;;;;;12.90;11.80;;;;;;;25.46;58.56;100236.80;86090;1296;89423;-63
2022/10/01 08:13:55;;;;;;;14.60;12.90;;;;;;;25.25;55.55;100236.65;86094;1295;92901;-63
2022/10/01 08:16:08;;;;;;;14.30;13.10;;;;;;;24.89;55.82;100233.06;86082;1297;80290;-63
2022/10/01 08:18:18;;;;;;;12.80;11.70;;;;;;;24.37;55.63;100224.59;86100;1296;81806;-61
2022/10/01 08:20:27;;;;;;;13.40;12.30;;;;;;;23.86;55.72;100218.36;86104;1294;99617;-61
2022/10/01 08:22:36;;;;;;;14.80;13.50;;;;;;;23.34;56.11;100214.38;86070;1290;89791;-61
2022/10/01 08:24:46;;;;;;;15.40;14.00;;;;;;;22.86;56.39;100212.16;86064;1294;95646;-60
2022/10/01 08:26:58;;;;;;;14.60;13.30;;;;;;;22.60;56.74;100216.25;86080;1294;79402;-61
2022/10/01 08:29:07;;;;;;;16.30;14.80;;;;;;;22.79;55.89;100215.04;86075;1295;83704;-62
2022/10/01 08:31:16;;;;;;;14.40;13.20;;;;;;;22.86;55.65;100210.07;86061;1291;99038;-61
2022/10/01 08:33:25;;;;;;;14.90;13.50;;;;;;;22.89;55.43;100210.73;86088;1296;86939;-63
2022/10/01 08:35:38;;;;;;;17.10;15.60;;;;;;;22.74;55.18;100206.98;86066;1291;95622;-63
2022/10/01 08:37:46;;;;;;;16.60;14.90;;;;;;;22.64;55.08;100204.20;86081;1296;80805;-62
2022/10/01 08:39:55;;;;;;;16.70;15.20;;;;;;;22.57;55.10;100199.11;86114;1294;83018;-62
2022/10/01 08:42:10;;;;;;;19.00;17.30;;;;;;;22.03;55.05;100196.96;86095;1297;99828;-62
2022/10/01 08:44:26;;;;;;;17.10;15.50;;;;;;;21.78;55.28;100191.88;86068;1299;88925;-62
2022/10/01 08:46:37;;;;;;;16.80;15.10;;;;;;;21.50;55.75;100191.95;85828;1294;348291;-60
2022/10/01 08:48:58;;;;;;;15.90;14.50;;;;;;;21.12;55.33;100199.70;86098;1294;78014;-60
2022/10/01 08:51:15;;;;;;;17.10;15.50;;;;;;;20.81;55.10;100194.67;86091;1292;82385;-61
2022/10/01 08:53:36;;;;;;;15.90;14.50;;;;;;;20.18;55.48;100199.34;86059;1296;100075;-61
2022/10/01 08:55:55;;;;;;;18.20;16.50;;;;;;;19.62;56.16;100197.36;86089;1292;88151;-62
2022/10/01 08:58:10;;;;;;;16.20;14.80;;;;;;;19.25;56.17;100190.92;86087;1296;95627;-62
2022/10/01 09:00:20;;;;;;;16.70;15.20;;;;;;;19.03;56.53;100188.79;86053;1296;79714;-62
2022/10/01 09:02:32;;;;;;;15.60;14.10;;;;;;;19.02;56.77;100184.05;86109;1297;81295;-62
2022/10/01 09:04:41;;;;;;;16.40;14.80;;;;;;;19.00;57.57;100176.42;86088;1298;100730;-62
2022/10/01 09:06:59;;;;;;;16.90;15.30;;;;;;;18.92;57.43;100178.20;86090;1296;86909;-62
2022/10/01 09:09:31;;;;;;;17.70;15.90;;;;;;;18.64;57.32;100178.91;86075;1281;95378;-62
2022/10/01 09:11:58;;;;;;;17.50;15.70;;;;;;;18.24;57.59;100182.44;86073;1297;79900;-61
2022/10/01 09:14:36;;;;;;;13.10;11.70;;;;;;;17.93;58.46;100183.34;86111;1296;81736;-62
2022/10/01 09:16:59;;;;;;;12.60;11.20;;;;;;;17.59;58.80;100179.23;86088;1294;98829;-61
2022/10/01 09:19:26;;;;;;;12.20;10.90;;;;;;;17.24;59.36;100174.66;86081;1293;88956;-62
2022/10/01 09:21:49;;;;;;;12.90;11.60;;;;;;;16.84;59.89;100179.58;86072;1292;95604;-61
2022/10/01 09:24:13;;;;;;;12.70;11.40;;;;;;;16.62;60.79;100173.35;86070;1296;79834;-61
2022/10/01 09:26:27;;;;;;;11.00;9.90;;;;;;;16.49;61.57;100171.91;86089;1296;82651;-60
2022/10/01 09:28:38;;;;;;;11.20;10.00;;;;;;;16.37;61.41;100174.31;86091;1287;99928;-60
2022/10/01 09:30:55;;;;;;;10.80;9.60;;;;;;;16.23;61.78;100172.48;86120;1298;88627;-60
2022/10/01 09:33:15;;;;;;;10.40;9.40;;;;;;;16.14;62.52;100172.53;86130;1289;94047;-61
2022/10/01 09:35:35;;;;;;;10.00;8.70;;;;;;;16.07;62.99;100177.77;86070;1291;79607;-61
2022/10/01 09:37:53;;;;;;;11.40;10.20;;;;;;;16.03;62.92;100176.48;86061;1295;81886;-60
2022/10/01 09:40:15;;;;;;;9.40;8.50;;;;;;;15.94;63.16;100172.67;86094;1287;100179;-60
2022/10/01 09:42:28;;;;;;;9.50;8.40;;;;;;;15.92;63.54;100170.34;86113;1295;87498;-62
2022/10/01 09:44:38;;;;;;;10.40;9.30;;;;;;;15.88;63.18;100169.36;86080;1296;93141;-62
2022/10/01 09:46:49;;;;;;;10.70;9.40;;;;;;;15.77;63.50;100169.07;86089;1294;81107;-62
2022/10/01 09:49:03;;;;;;;12.50;10.10;;;;;;;15.73;63.83;100168.83;86090;1297;80959;-59
2022/10/01 09:51:22;;;;;;;12.10;10.60;;;;;;;15.68;64.14;100168.89;86079;1294;98532;-60
2022/10/01 09:53:40;;;;;;;12.40;11.10;;;;;;;15.63;64.57;100171.84;86097;1297;88383;-61
2022/10/01 09:55:54;;;;;;;12.90;11.60;;;;;;;15.68;64.49;100173.37;86068;1293;93443;-61
2022/10/01 09:58:12;;;;;;;12.70;11.50;;;;;;;15.70;64.51;100170.54;86068;1298;79994;-59
2022/10/01 10:00:24;;;;;;;13.60;11.20;;;;;;;15.58;64.69;100170.75;86093;1296;81023;-59
2022/10/01 10:02:40;;;;;;;12.10;10.90;;;;;;;15.46;64.88;100165.99;86144;1295;99896;-60
2022/10/01 10:04:58;;;;;;;11.60;10.40;;;;;;;15.55;65.37;100167.04;86109;1296;87099;-60
2022/10/01 10:07:08;;;;;;;12.20;11.00;;;;;;;15.70;65.42;100160.23;86060;1291;93114;-61
2022/10/01 10:09:26;;;;;;;11.90;10.60;;;;;;;15.64;65.12;100158.05;86101;1295;79284;-61